MUVR/VRA METAR and TAF weather

Enter ICAO airport designator
Station Type Date Time Source
MUVR METAR 2020/11/28 19:50 UTC NOAA

MUVR 281950Z 04008KT 9000 FEW025 28/17 Q1015


Station Type Date Time Source
MUVR Decoded METAR 2020/11/28 19:50 UTC NOAA

Varadero, Matanzas, Cuba (MUVR) 23-08N 081-17W 3M
Nov 28, 2020 - 02:50 PM EST / 2020.11.28 1950 UTC
Wind: from the NE (040 degrees) at 9 MPH (8 KT):0
Visibility: 5 mile(s):0
Sky conditions: mostly clear
Temperature: 82 F (28 C)
Dew Point: 62 F (17 C)
Relative Humidity: 51%
Pressure (altimeter): 29.97 in. Hg (1015 hPa)
ob: MUVR 281950Z 04008KT 9000 FEW025 28/17 Q1015
cycle: 20

Station Type Date Time Source
MUVR TAF 2020/11/28 18:03 UTC NOAA

TAF MUVR 281700Z 2818/2918 06010KT 9000 SCT020
BECMG 2900/2902 VRB03KT

Example: see airport list